Time;durP1;ratioP1;P1;durP2;ratioP2;P2;SDS_P1;SDS_P2;PMS_P1;PMS_P2;Temp;Humidity;BMP_temperature;BMP_pressure;BME280_temperature;BME280_humidity;BME280_pressure;Samples;Min_cycle;Max_cycle;Signal;HPM_P1;HPM_P2
2022/03/23 00:00:44;;;;;;;12.07;5.68;;;;;;;5.47;37.46;100830.97;4245827;33;33677;-78
2022/03/23 00:03:16;;;;;;;13.75;7.50;;;;;;;6.11;37.43;100823.59;4244981;33;33818;-77
2022/03/23 00:05:44;;;;;;;10.80;6.65;;;;;;;5.89;36.49;100822.00;4245109;33;36035;-78
2022/03/23 00:08:12;;;;;;;14.45;8.00;;;;;;;6.26;37.05;100824.06;4245014;33;34369;-77
2022/03/23 00:10:40;;;;;;;13.38;6.40;;;;;;;6.08;36.21;100811.44;4246853;33;34219;-75
2022/03/23 00:13:08;;;;;;;17.92;7.07;;;;;;;6.14;36.28;100818.53;4245500;33;33777;-77
2022/03/23 00:15:36;;;;;;;13.62;7.15;;;;;;;6.08;36.00;100820.91;4248558;33;35138;-74
2022/03/23 00:18:04;;;;;;;16.00;7.00;;;;;;;5.81;36.60;100816.59;4234946;33;34322;-77
2022/03/23 00:20:32;;;;;;;12.30;6.87;;;;;;;5.86;36.64;100820.19;4247072;33;33315;-77
2022/03/23 00:23:00;;;;;;;18.42;8.20;;;;;;;5.65;37.91;100819.50;4246892;33;34870;-75
2022/03/23 00:25:27;;;;;;;12.15;7.72;;;;;;;5.86;36.30;100812.44;4246902;33;34889;-74
2022/03/23 00:27:55;;;;;;;12.93;7.37;;;;;;;6.01;36.11;100816.37;4246544;33;35099;-78
2022/03/23 00:30:23;;;;;;;16.48;6.22;;;;;;;5.43;39.02;100808.44;4246516;33;34285;-77
2022/03/23 00:32:52;;;;;;;10.20;5.93;;;;;;;6.16;37.46;100813.37;4247753;33;34053;-76
2022/03/23 00:35:22;;;;;;;12.68;6.95;;;;;;;6.22;38.06;100804.09;4248474;33;34995;-75
2022/03/23 00:37:50;;;;;;;11.30;6.90;;;;;;;5.25;40.67;100815.56;4248193;33;35211;-74
2022/03/23 00:40:18;;;;;;;12.65;6.72;;;;;;;5.55;37.49;100809.69;4247219;33;33552;-77
2022/03/23 00:42:46;;;;;;;15.98;6.75;;;;;;;5.73;36.47;100802.53;4248366;33;33929;-77
2022/03/23 00:45:15;;;;;;;12.37;6.57;;;;;;;6.07;36.83;100801.03;4247740;33;34095;-78
2022/03/23 00:47:44;;;;;;;13.10;7.28;;;;;;;6.18;35.43;100802.25;4247566;33;34443;-78
2022/03/23 00:50:11;;;;;;;12.32;6.10;;;;;;;5.86;35.41;100796.06;4247862;33;34407;-77
2022/03/23 00:52:39;;;;;;;14.00;7.22;;;;;;;6.46;35.05;100800.50;4247299;33;33192;-75
2022/03/23 00:55:09;;;;;;;16.80;7.70;;;;;;;6.30;36.07;100808.62;4247711;33;35169;-78
2022/03/23 00:57:37;;;;;;;26.42;7.03;;;;;;;6.24;36.39;100805.03;4247225;33;34272;-77
2022/03/23 01:00:12;;;;;;;12.93;6.35;;;;;;;6.17;36.91;100799.63;4247623;33;34457;-78
2022/03/23 01:02:40;;;;;;;13.35;5.90;;;;;;;6.45;35.22;100798.75;4236037;33;34755;-75
2022/03/23 01:05:09;;;;;;;20.37;8.02;;;;;;;6.44;35.99;100791.81;4246931;33;36041;-78
2022/03/23 01:07:40;;;;;;;15.23;7.43;;;;;;;6.19;34.87;100793.66;4235548;33;34627;-77
2022/03/23 01:10:12;;;;;;;11.35;7.18;;;;;;;6.16;34.92;100787.50;4246525;33;33714;-77
2022/03/23 01:12:45;;;;;;;16.77;8.40;;;;;;;6.55;34.30;100785.25;4247094;33;33857;-74
2022/03/23 01:15:15;;;;;;;13.80;7.37;;;;;;;6.59;33.89;100786.22;4246573;33;35000;-77
2022/03/23 01:17:43;;;;;;;18.35;7.90;;;;;;;6.08;37.07;100789.87;4257434;33;34487;-78
2022/03/23 01:20:14;;;;;;;16.55;7.22;;;;;;;5.74;35.04;100791.38;4246126;33;33503;-76
2022/03/23 01:22:43;;;;;;;17.10;7.30;;;;;;;6.24;36.71;100791.22;4246459;33;34098;-74
2022/03/23 01:25:15;;;;;;;14.52;7.65;;;;;;;6.81;36.05;100786.00;4246715;33;35147;-79
2022/03/23 01:27:44;;;;;;;12.55;6.47;;;;;;;6.40;34.83;100788.25;4247051;33;34281;-77
2022/03/23 01:30:15;;;;;;;20.65;8.05;;;;;;;6.89;34.57;100783.59;4234825;33;32188;-78
2022/03/23 01:32:43;;;;;;;20.05;9.45;;;;;;;6.94;33.43;100779.44;4247010;33;34759;-76
2022/03/23 01:35:12;;;;;;;18.25;8.02;;;;;;;7.20;33.72;100777.53;4245227;33;35015;-77
2022/03/23 01:37:40;;;;;;;14.70;7.65;;;;;;;7.41;32.66;100765.94;4246951;33;34575;-75
2022/03/23 01:40:10;;;;;;;15.73;7.78;;;;;;;7.53;32.04;100768.84;4242067;33;153994;-78
2022/03/23 01:42:39;;;;;;;12.37;6.68;;;;;;;7.46;34.25;100768.66;4234718;33;33007;-75
2022/03/23 01:45:08;;;;;;;14.25;7.37;;;;;;;7.42;33.71;100775.50;4246021;33;35871;-76
2022/03/23 01:47:37;;;;;;;13.10;7.37;;;;;;;7.55;31.95;100769.78;4246859;33;34450;-77
2022/03/23 01:50:06;;;;;;;14.80;6.68;;;;;;;8.07;30.83;100770.13;4246212;33;33378;-78
2022/03/23 01:52:34;;;;;;;14.32;7.00;;;;;;;8.32;32.91;100761.12;4248032;33;34834;-77
2022/03/23 01:55:07;;;;;;;15.90;8.05;;;;;;;7.53;33.97;100765.38;4247141;33;34916;-77
2022/03/23 01:57:36;;;;;;;13.48;7.00;;;;;;;7.53;32.58;100770.56;4246971;33;35207;-77
2022/03/23 02:00:06;;;;;;;14.73;6.78;;;;;;;7.30;34.53;100767.41;4247201;33;33567;-77
2022/03/23 02:02:40;;;;;;;15.25;6.40;;;;;;;7.19;33.18;100767.12;4246250;33;34632;-75
2022/03/23 02:05:11;;;;;;;17.55;6.35;;;;;;;7.22;32.43;100769.81;4246229;33;34987;-75
2022/03/23 02:07:42;;;;;;;13.15;6.53;;;;;;;7.46;32.16;100772.13;4247100;33;34485;-77
2022/03/23 02:10:10;;;;;;;14.98;7.15;;;;;;;7.77;32.12;100765.97;4246004;33;34431;-75
2022/03/23 02:12:38;;;;;;;14.05;6.37;;;;;;;8.18;33.49;100766.88;4248156;33;34004;-78
2022/03/23 02:15:14;;;;;;;14.32;7.40;;;;;;;8.10;32.36;100764.09;4246779;33;36012;-77
2022/03/23 02:17:42;;;;;;;10.77;6.12;;;;;;;7.95;32.91;100772.44;4246892;33;34526;-78
2022/03/23 02:20:11;;;;;;;13.82;7.07;;;;;;;8.34;33.94;100768.97;4246892;33;33494;-75
2022/03/23 02:22:39;;;;;;;11.73;6.32;;;;;;;8.45;30.89;100766.63;4246198;33;34722;-75
2022/03/23 02:25:08;;;;;;;18.50;7.18;;;;;;;8.24;32.64;100769.59;4245818;33;33509;-75
2022/03/23 02:27:37;;;;;;;15.07;7.57;;;;;;;8.01;32.79;100767.38;4247135;33;34453;-74
2022/03/23 02:30:07;;;;;;;16.48;6.80;;;;;;;8.59;30.22;100764.31;4247017;33;33656;-77
2022/03/23 02:32:35;;;;;;;22.13;9.63;;;;;;;8.71;30.93;100768.03;4246017;33;33112;-78
2022/03/23 02:35:04;;;;;;;13.62;7.12;;;;;;;8.49;31.13;100769.34;4246915;33;35096;-75
2022/03/23 02:37:31;;;;;;;17.30;7.75;;;;;;;8.84;30.92;100757.88;4246540;33;34426;-75
2022/03/23 02:39:59;;;;;;;13.88;6.60;;;;;;;8.73;30.40;100765.47;4245748;33;34278;-76
2022/03/23 02:42:28;;;;;;;17.05;7.25;;;;;;;9.07;31.41;100764.41;4257544;33;33152;-77
2022/03/23 02:44:55;;;;;;;15.98;7.32;;;;;;;8.81;30.49;100765.63;4245768;33;34886;-75
2022/03/23 02:47:23;;;;;;;13.07;6.75;;;;;;;8.48;31.86;100762.37;4247638;33;35337;-77
2022/03/23 02:49:51;;;;;;;15.75;7.40;;;;;;;8.24;33.03;100767.00;4246983;33;33556;-76
2022/03/23 02:52:19;;;;;;;14.77;7.90;;;;;;;8.18;32.85;100770.34;4247529;33;34269;-75
2022/03/23 03:03:01;;;;;;;11.65;5.97;;;;;;;7.49;34.56;100766.16;4246875;33;33891;-78
2022/03/23 03:05:29;;;;;;;9.88;6.12;;;;;;;6.91;34.32;100762.94;4245576;33;34217;-74
2022/03/23 03:10:43;;;;;;;14.40;6.77;;;;;;;7.41;35.27;100763.34;4246894;33;33513;-76
2022/03/23 03:13:11;;;;;;;11.65;6.32;;;;;;;6.52;35.89;100766.16;4247517;33;33948;-74
2022/03/23 03:15:39;;;;;;;15.00;6.65;;;;;;;5.40;37.80;100767.03;4246617;33;35091;-78
2022/03/23 03:18:07;;;;;;;13.40;7.32;;;;;;;5.77;36.43;100768.22;4244466;33;33715;-78
2022/03/23 03:20:34;;;;;;;11.27;6.90;;;;;;;6.61;36.13;100769.00;4246503;33;34527;-77
2022/03/23 03:23:03;;;;;;;12.15;7.40;;;;;;;6.32;36.30;100770.75;4247606;33;34553;-74
2022/03/23 03:25:32;;;;;;;14.35;5.95;;;;;;;5.53;39.50;100775.19;4245049;33;35968;-75
2022/03/23 03:27:59;;;;;;;12.20;6.37;;;;;;;5.87;37.95;100767.66;4234580;33;33604;-74
2022/03/23 03:30:27;;;;;;;15.60;7.57;;;;;;;5.89;38.04;100770.28;4246683;33;33564;-77
2022/03/23 03:32:55;;;;;;;10.25;5.93;;;;;;;6.58;34.92;100758.56;4246275;33;34026;-77
2022/03/23 03:35:23;;;;;;;14.38;7.30;;;;;;;7.12;34.08;100765.22;4245376;33;35799;-77
2022/03/23 03:37:50;;;;;;;16.95;8.07;;;;;;;7.83;32.26;100756.59;4247264;33;35224;-75
2022/03/23 03:40:18;;;;;;;13.27;6.60;;;;;;;7.76;33.48;100753.88;4245402;33;32628;-77
2022/03/23 03:42:46;;;;;;;12.90;6.60;;;;;;;7.99;32.64;100750.91;4246482;33;34629;-77
2022/03/23 03:45:14;;;;;;;13.95;7.03;;;;;;;7.97;33.05;100757.78;4246406;33;35188;-77
2022/03/23 03:47:42;;;;;;;11.60;6.72;;;;;;;8.52;30.95;100747.72;4246541;33;35019;-75
2022/03/23 03:50:09;;;;;;;15.88;6.82;;;;;;;8.47;30.87;100751.94;4246394;33;33492;-77
2022/03/23 03:52:37;;;;;;;15.77;7.07;;;;;;;9.06;31.33;100751.38;4245980;33;34814;-76
2022/03/23 03:55:05;;;;;;;13.68;6.82;;;;;;;8.97;30.23;100748.63;4246196;33;36143;-78
2022/03/23 03:57:33;;;;;;;13.48;7.03;;;;;;;9.29;29.64;100739.66;4239725;33;35302;-77
2022/03/23 04:00:01;;;;;;;13.13;7.20;;;;;;;9.37;29.81;100752.78;4256321;33;33405;-76
2022/03/23 04:02:38;;;;;;;16.08;7.35;;;;;;;9.33;29.93;100756.16;4246098;33;34071;-76
2022/03/23 04:05:07;;;;;;;11.25;6.70;;;;;;;10.10;28.19;100753.91;4245950;33;35859;-74
2022/03/23 04:07:35;;;;;;;16.23;6.90;;;;;;;10.29;28.34;100749.78;4246579;33;35200;-76
2022/03/23 04:10:04;;;;;;;14.18;6.80;;;;;;;10.44;28.34;100748.28;4245208;33;33260;-77
2022/03/23 04:12:32;;;;;;;16.40;8.65;;;;;;;10.35;28.00;100756.00;4245480;33;34062;-75
2022/03/23 04:14:59;;;;;;;15.52;8.02;;;;;;;9.92;28.80;100758.00;4253912;33;35795;-74
2022/03/23 04:17:28;;;;;;;15.63;7.93;;;;;;;10.44;28.13;100753.50;4246204;33;34504;-75
2022/03/23 04:19:56;;;;;;;16.50;8.40;;;;;;;10.67;27.52;100758.13;4245381;33;33479;-75
2022/03/23 04:22:24;;;;;;;15.35;7.40;;;;;;;10.53;28.04;100751.87;4246332;33;34784;-77
2022/03/23 04:24:52;;;;;;;11.90;7.80;;;;;;;10.55;28.02;100748.44;4244377;33;34959;-75
2022/03/23 04:27:20;;;;;;;15.88;7.28;;;;;;;10.74;27.74;100752.13;4246353;33;34497;-74
2022/03/23 04:29:47;;;;;;;14.18;7.82;;;;;;;10.74;27.76;100746.03;4256078;33;34349;-74
2022/03/23 04:32:15;;;;;;;15.15;9.00;;;;;;;10.99;27.20;100741.97;4255881;33;33891;-76
2022/03/23 04:34:43;;;;;;;16.52;7.95;;;;;;;10.71;27.51;100746.91;4245522;33;35141;-76
2022/03/23 04:37:11;;;;;;;18.45;8.02;;;;;;;10.89;27.62;100743.62;4245137;33;35165;-74
2022/03/23 04:39:38;;;;;;;15.25;8.15;;;;;;;11.48;26.68;100747.62;4245409;33;33823;-73
2022/03/23 04:42:07;;;;;;;12.55;7.45;;;;;;;11.61;26.45;100752.94;4246289;33;33859;-75
2022/03/23 04:44:34;;;;;;;13.48;6.57;;;;;;;11.32;26.61;100750.97;4245461;33;35460;-74
2022/03/23 04:47:02;;;;;;;15.73;7.47;;;;;;;11.42;26.43;100742.37;4244994;33;35145;-76
2022/03/23 04:49:30;;;;;;;14.30;7.68;;;;;;;11.08;26.75;100757.72;4245245;33;33453;-73
2022/03/23 04:51:58;;;;;;;19.12;8.63;;;;;;;10.89;27.15;100763.56;4256611;33;33787;-74
2022/03/23 04:54:26;;;;;;;13.90;7.50;;;;;;;11.23;26.89;100756.97;4245162;33;35173;-73
2022/03/23 04:56:54;;;;;;;12.43;7.57;;;;;;;11.28;26.54;100757.91;4245884;33;34333;-73
2022/03/23 04:59:22;;;;;;;19.12;9.35;;;;;;;11.22;26.96;100757.81;4255976;33;33765;-72
2022/03/23 05:01:49;;;;;;;16.27;8.77;;;;;;;11.10;27.36;100760.31;4248129;33;33986;-73
2022/03/23 05:04:18;;;;;;;12.88;7.47;;;;;;;11.01;27.04;100758.47;4247046;33;35078;-73
2022/03/23 05:06:46;;;;;;;11.88;7.40;;;;;;;10.85;27.43;100756.59;4246946;33;35221;-76
2022/03/23 05:09:14;;;;;;;16.45;7.03;;;;;;;11.23;26.87;100762.19;4234598;33;32779;-75
2022/03/23 05:11:42;;;;;;;18.45;7.60;;;;;;;11.20;26.99;100763.03;4244260;33;34072;-73
2022/03/23 05:14:10;;;;;;;20.15;8.38;;;;;;;11.10;27.38;100771.63;4247263;33;34948;-73
2022/03/23 05:16:38;;;;;;;24.52;10.05;;;;;;;11.18;27.21;100772.56;4244193;33;34409;-74
2022/03/23 05:19:06;;;;;;;13.45;7.03;;;;;;;11.17;27.29;100776.06;4232384;33;33837;-74
2022/03/23 05:21:34;;;;;;;18.17;8.18;;;;;;;12.02;26.22;100778.47;4246035;33;33936;-77
2022/03/23 05:24:02;;;;;;;29.12;11.95;;;;;;;13.79;24.16;100774.66;4247944;33;35138;-74
2022/03/23 05:26:30;;;;;;;20.70;7.93;;;;;;;14.99;23.61;100783.94;4246978;33;34653;-77
2022/03/23 05:28:58;;;;;;;17.85;10.30;;;;;;;16.22;21.92;100789.97;4246790;33;33544;-73
2022/03/23 05:31:25;;;;;;;15.48;7.82;;;;;;;17.38;20.96;100784.97;4246338;33;34652;-73
2022/03/23 05:33:53;;;;;;;15.18;8.50;;;;;;;18.30;19.71;100776.34;4246699;33;35919;-73
2022/03/23 05:36:21;;;;;;;16.17;8.02;;;;;;;18.07;20.38;100777.69;4247017;33;34256;-75
2022/03/23 05:38:49;;;;;;;15.95;8.05;;;;;;;17.84;19.44;100782.44;4247887;33;34284;-74
2022/03/23 05:41:17;;;;;;;14.30;8.38;;;;;;;17.32;21.46;100781.56;4247105;33;33945;-75
2022/03/23 05:43:45;;;;;;;14.52;7.87;;;;;;;15.04;24.94;100778.66;4247810;33;35098;-74
2022/03/23 05:46:12;;;;;;;16.48;8.75;;;;;;;16.04;21.71;100778.75;4246001;33;34383;-74
2022/03/23 05:48:41;;;;;;;13.43;8.10;;;;;;;15.67;22.25;100768.56;4247818;33;33666;-74
2022/03/23 05:51:09;;;;;;;19.67;9.13;;;;;;;15.93;21.93;100770.09;4247152;33;33717;-80
2022/03/23 05:53:37;;;;;;;16.52;8.38;;;;;;;15.81;21.85;100773.75;4246728;33;35960;-74
2022/03/23 05:56:07;;;;;;;21.27;8.75;;;;;;;15.35;23.92;100776.69;4246087;33;35219;-79
2022/03/23 05:58:34;;;;;;;28.55;11.32;;;;;;;16.00;22.88;100777.03;4246953;33;32975;-79
2022/03/23 06:01:03;;;;;;;20.37;9.43;;;;;;;16.83;21.36;100778.72;4245951;33;34070;-76
2022/03/23 06:03:31;;;;;;;17.85;9.20;;;;;;;16.12;22.18;100781.31;4247731;33;35938;-77
2022/03/23 06:05:59;;;;;;;14.23;7.55;;;;;;;15.33;22.89;100784.56;4246960;33;34495;-78
2022/03/23 06:08:26;;;;;;;17.37;8.57;;;;;;;15.73;23.05;100788.66;4247529;33;33516;-77
2022/03/23 06:10:55;;;;;;;13.90;8.32;;;;;;;16.19;22.04;100780.34;4244940;33;34857;-75
2022/03/23 06:13:22;;;;;;;33.28;11.43;;;;;;;16.29;21.65;100775.87;4246782;33;35752;-76
2022/03/23 06:15:50;;;;;;;19.98;9.23;;;;;;;15.68;23.68;100780.78;4247161;33;34558;-80
2022/03/23 06:18:18;;;;;;;21.45;9.95;;;;;;;16.46;21.80;100779.16;4247815;33;33511;-81
2022/03/23 06:20:46;;;;;;;14.73;8.35;;;;;;;16.73;22.26;100784.97;4244964;33;34873;-81
2022/03/23 06:23:14;;;;;;;18.00;8.80;;;;;;;16.33;21.52;100780.19;4246614;33;35927;-76
2022/03/23 06:25:42;;;;;;;16.37;9.25;;;;;;;16.06;21.86;100782.25;4246876;33;35299;-78
2022/03/23 06:28:09;;;;;;;17.58;9.88;;;;;;;16.34;21.45;100778.44;4258222;33;34151;-77
2022/03/23 06:30:37;;;;;;;19.87;8.35;;;;;;;16.49;22.06;100781.75;4257467;33;34019;-80
2022/03/23 06:33:06;;;;;;;17.52;8.98;;;;;;;16.76;21.06;100789.31;4246891;33;34957;-79
2022/03/23 06:35:33;;;;;;;16.05;10.00;;;;;;;16.30;21.94;100785.47;4245739;33;34418;-77
2022/03/23 06:38:02;;;;;;;22.65;8.57;;;;;;;16.99;21.89;100783.78;4247725;33;33751;-75
2022/03/23 06:40:30;;;;;;;21.37;9.43;;;;;;;16.61;21.90;100786.00;4245037;33;33956;-76
2022/03/23 06:42:57;;;;;;;15.85;9.25;;;;;;;17.23;21.20;100782.56;4247703;33;35673;-80
2022/03/23 06:45:25;;;;;;;18.73;9.23;;;;;;;16.74;21.28;100783.22;4247072;33;35247;-79
2022/03/23 06:47:53;;;;;;;18.17;9.60;;;;;;;17.15;21.51;100787.91;4235235;33;34340;-77
2022/03/23 06:50:21;;;;;;;17.02;10.23;;;;;;;17.12;20.83;100787.09;4246791;33;34099;-81
2022/03/23 06:52:49;;;;;;;18.10;8.73;;;;;;;17.11;20.58;100790.63;4247388;33;36029;-79
2022/03/23 06:55:17;;;;;;;17.40;9.25;;;;;;;18.20;19.63;100786.22;4257217;33;35070;-82
2022/03/23 06:57:44;;;;;;;15.45;8.35;;;;;;;17.37;20.25;100792.87;4247561;33;33515;-76
2022/03/23 07:00:13;;;;;;;19.00;9.30;;;;;;;17.54;20.14;100795.25;4245997;33;34924;-80
2022/03/23 07:02:42;;;;;;;18.90;9.25;;;;;;;17.68;20.14;100789.75;4247284;33;35091;-80
2022/03/23 07:05:11;;;;;;;15.98;9.05;;;;;;;17.59;20.06;100794.28;4246712;33;34532;-76
2022/03/23 07:09:31;;;;;;;52.35;11.20;;;;;;;16.76;21.38;100790.19;4247652;33;34242;-80
2022/03/23 07:10:27;;;;;;;13.30;9.00;;;;;;;17.52;20.54;100784.72;4245731;33;33964;-80
2022/03/23 07:12:56;;;;;;;19.45;9.57;;;;;;;17.35;20.30;100794.69;4246053;33;34319;-77
2022/03/23 07:15:24;;;;;;;16.17;8.70;;;;;;;16.77;21.12;100786.69;4245464;33;35350;-74
2022/03/23 07:17:52;;;;;;;19.50;8.98;;;;;;;17.54;20.30;100790.88;4245167;33;34368;-77
2022/03/23 07:20:20;;;;;;;19.83;9.10;;;;;;;17.61;20.30;100794.25;4245323;33;33975;-80
2022/03/23 07:22:48;;;;;;;19.42;8.77;;;;;;;17.12;21.08;100788.00;4245179;33;34270;-81
2022/03/23 07:25:16;;;;;;;18.42;9.40;;;;;;;17.47;20.41;100793.59;4245355;33;35288;-80
2022/03/23 07:27:44;;;;;;;16.15;9.30;;;;;;;17.76;20.24;100791.34;4246079;33;33770;-78
2022/03/23 07:30:12;;;;;;;16.80;9.35;;;;;;;18.16;20.08;100787.19;4245466;33;34776;-77
2022/03/23 07:32:40;;;;;;;14.18;9.20;;;;;;;18.01;20.60;100788.31;4247288;33;35987;-76
2022/03/23 07:35:08;;;;;;;16.98;8.93;;;;;;;18.89;19.58;100792.75;4246742;33;34530;-75
2022/03/23 07:37:36;;;;;;;17.37;9.02;;;;;;;18.77;19.41;100793.84;4247173;33;33594;-76
2022/03/23 07:40:05;;;;;;;16.90;8.38;;;;;;;18.67;19.86;100781.78;4246670;33;34731;-76
2022/03/23 07:42:33;;;;;;;16.55;9.45;;;;;;;18.54;19.37;100785.56;4245077;33;35071;-79
2022/03/23 07:45:00;;;;;;;17.50;8.68;;;;;;;19.13;18.68;100778.16;4245683;33;34334;-76
2022/03/23 07:47:32;;;;;;;19.70;9.02;;;;;;;18.92;18.94;100781.28;4247065;33;34396;-82
2022/03/23 07:49:59;;;;;;;15.48;8.80;;;;;;;18.84;18.96;100789.34;4245079;33;33817;-79
2022/03/23 07:52:27;;;;;;;16.90;10.32;;;;;;;19.19;18.53;100778.91;4247205;33;35882;-79
2022/03/23 07:54:55;;;;;;;16.90;9.00;;;;;;;18.47;19.15;100783.94;4245699;33;34650;-76
2022/03/23 07:57:23;;;;;;;16.08;8.52;;;;;;;18.99;19.27;100787.25;4246818;33;33471;-81
2022/03/23 07:59:50;;;;;;;15.43;8.85;;;;;;;19.22;19.21;100781.44;4245623;33;33083;-75
2022/03/23 08:02:18;;;;;;;16.33;9.43;;;;;;;19.60;18.42;100774.38;4246265;33;34978;-81
2022/03/23 08:05:04;;;;;;;16.92;9.23;;;;;;;19.56;18.75;100778.88;4553921;28;34395;31
2022/03/23 08:07:32;;;;;;;18.75;9.60;;;;;;;18.82;19.40;100777.94;4228091;33;33328;-73
2022/03/23 08:10:01;;;;;;;17.10;9.65;;;;;;;19.34;19.33;100775.87;4231688;33;33963;-73
2022/03/23 08:12:29;;;;;;;17.20;9.48;;;;;;;19.73;18.68;100778.47;4230110;33;35056;-74
2022/03/23 08:14:57;;;;;;;16.75;8.60;;;;;;;19.88;18.57;100772.78;4231407;33;34264;-74
2022/03/23 08:17:26;;;;;;;18.90;9.35;;;;;;;20.07;18.00;100775.81;4231736;33;33755;-74
2022/03/23 08:20:54;;;;;;;23.02;10.05;;;;;;;19.18;18.81;100777.16;4232488;33;33973;-73
2022/03/23 08:22:51;;;;;;;16.77;9.80;;;;;;;19.85;18.34;100782.59;4226975;33;34875;-74
2022/03/23 08:25:19;;;;;;;19.00;8.95;;;;;;;19.29;19.25;100783.06;4230632;33;34476;-74
2022/03/23 08:27:47;;;;;;;20.17;9.77;;;;;;;19.85;19.10;100780.84;4231390;33;33205;-73
2022/03/23 08:30:16;;;;;;;19.67;8.88;;;;;;;20.36;17.89;100786.50;4232298;33;33865;-73
2022/03/23 08:32:44;;;;;;;36.53;10.25;;;;;;;20.51;17.62;100780.78;4230284;33;35098;-73
2022/03/23 08:35:12;;;;;;;23.83;10.40;;;;;;;20.33;17.96;100786.59;4234002;33;34426;-74
2022/03/23 08:37:40;;;;;;;17.10;9.30;;;;;;;20.53;18.21;100784.25;4232796;33;34473;-74
2022/03/23 08:40:08;;;;;;;15.90;8.82;;;;;;;21.20;17.22;100776.06;4234315;33;34972;-73
2022/03/23 08:42:36;;;;;;;15.95;9.40;;;;;;;21.05;17.24;100791.59;4233397;33;34920;-73
2022/03/23 08:45:06;;;;;;;16.05;8.88;;;;;;;21.26;16.96;100779.44;4233058;33;34559;-74
2022/03/23 08:47:35;;;;;;;16.52;9.20;;;;;;;20.40;17.58;100782.84;4231657;33;33489;-73
2022/03/23 08:50:04;;;;;;;15.75;9.10;;;;;;;21.12;17.48;100785.19;4234343;33;33845;-73
2022/03/23 08:52:36;;;;;;;16.85;9.00;;;;;;;21.57;16.64;100784.66;4232500;33;34980;-74
2022/03/23 08:55:06;;;;;;;18.60;9.30;;;;;;;20.59;17.62;100778.78;4234147;33;35244;-75
2022/03/23 08:57:38;;;;;;;17.17;9.30;;;;;;;20.77;17.94;100781.81;4242798;33;33580;-74
2022/03/23 09:00:07;;;;;;;18.15;9.00;;;;;;;21.61;16.83;100778.31;4243308;33;33739;-74
2022/03/23 09:02:35;;;;;;;17.65;8.23;;;;;;;22.15;16.29;100782.63;4232656;33;35058;-76
2022/03/23 09:05:04;;;;;;;16.98;8.43;;;;;;;21.52;16.86;100776.00;4233481;33;34378;-76
2022/03/23 09:07:32;;;;;;;15.05;8.65;;;;;;;21.93;16.58;100779.87;4231273;33;34193;-74
2022/03/23 09:10:00;;;;;;;14.07;8.15;;;;;;;22.39;16.26;100766.78;4234104;33;33946;-74
2022/03/23 09:12:28;;;;;;;13.30;7.53;;;;;;;22.47;16.02;100777.97;4232056;33;35427;-73
2022/03/23 09:14:56;;;;;;;13.93;8.35;;;;;;;22.44;16.06;100763.97;4234092;33;34470;-74
2022/03/23 09:17:26;;;;;;;18.15;9.02;;;;;;;22.79;15.85;100764.41;4233224;33;33584;-74
2022/03/23 09:19:55;;;;;;;13.90;8.48;;;;;;;23.21;15.73;100759.22;4233733;33;34048;-74
2022/03/23 09:22:23;;;;;;;19.75;9.80;;;;;;;23.50;16.21;100759.81;4233011;33;35067;-74
2022/03/23 09:24:51;;;;;;;14.90;8.15;;;;;;;23.85;15.59;100763.66;4233727;33;34334;-73
2022/03/23 09:27:19;;;;;;;13.55;7.70;;;;;;;23.37;15.49;100753.28;4233082;33;33353;-75
2022/03/23 09:29:48;;;;;;;15.15;8.00;;;;;;;23.85;15.07;100757.47;4232321;33;34048;-74
2022/03/23 09:32:20;;;;;;;22.70;9.27;;;;;;;23.94;15.04;100764.19;4232294;33;35081;-74
2022/03/23 09:34:49;;;;;;;23.52;9.32;;;;;;;24.28;15.47;100752.91;4233295;33;34606;-73
2022/03/23 09:40:06;;;;;;;13.70;7.45;;;;;;;24.35;14.70;100754.34;4233705;33;34880;-75
2022/03/23 09:42:34;;;;;;;14.50;8.60;;;;;;;24.14;14.77;100756.22;4220397;33;35891;-77
2022/03/23 09:45:02;;;;;;;21.08;8.88;;;;;;;24.97;13.86;100752.41;4232236;33;35283;-76
2022/03/23 09:47:31;;;;;;;12.27;7.68;;;;;;;24.44;14.88;100754.88;4232968;33;34267;-77
2022/03/23 09:49:59;;;;;;;14.93;8.02;;;;;;;24.31;15.14;100747.44;4233889;33;33913;-73
2022/03/23 09:52:27;;;;;;;15.32;7.93;;;;;;;23.62;14.84;100748.66;4233486;33;35233;-73
2022/03/23 09:54:56;;;;;;;12.07;7.20;;;;;;;24.68;13.84;100748.44;4234017;33;34514;-73
2022/03/23 09:57:24;;;;;;;14.48;7.62;;;;;;;25.53;12.74;100747.88;4233113;33;34472;-72
2022/03/23 09:59:52;;;;;;;14.02;7.68;;;;;;;24.98;13.97;100738.13;4233772;33;33944;-73
2022/03/23 10:02:41;;;;;;;13.48;7.93;;;;;;;25.47;13.98;100740.19;4233080;33;35195;-74
2022/03/23 10:05:24;;;;;;;10.82;6.12;;;;;;;25.87;13.96;100740.84;4233677;33;34457;-73
2022/03/23 10:08:18;;;;;;;13.55;6.80;;;;;;;25.28;13.34;100736.72;4233006;33;33362;-73
2022/03/23 10:11:09;;;;;;;9.75;6.90;;;;;;;25.56;13.89;100738.03;4233723;33;34162;-73
2022/03/23 10:14:11;;;;;;;17.05;7.60;;;;;;;25.08;13.98;100735.03;4232232;33;36020;-73
2022/03/23 10:17:01;;;;;;;11.35;7.03;;;;;;;26.38;12.19;100731.94;4232876;33;34704;-74
2022/03/23 10:19:30;;;;;;;12.88;7.53;;;;;;;26.29;12.60;100727.97;4232090;33;33181;-72
2022/03/23 10:22:08;;;;;;;15.23;7.78;;;;;;;25.51;14.19;100730.25;4233769;33;34112;-73
2022/03/23 10:24:37;;;;;;;11.98;6.47;;;;;;;26.62;13.70;100719.94;4243275;33;35655;-74
2022/03/23 10:27:07;;;;;;;14.65;6.30;;;;;;;26.19;13.16;100714.28;4232803;33;34426;-74
2022/03/23 10:29:44;;;;;;;13.68;6.50;;;;;;;26.27;12.65;100712.03;4231581;33;32836;-74
2022/03/23 10:32:13;;;;;;;;;;;;;;;25.13;12.74;100716.97;4229225;33;33935;-72
2022/03/23 10:34:46;;;;;;;10.18;6.25;;;;;;;26.74;11.89;100714.87;4230748;33;35362;-72
2022/03/23 10:37:32;;;;;;;14.85;7.00;;;;;;;26.48;12.59;100707.31;4233360;33;35272;-71
2022/03/23 10:40:07;;;;;;;9.80;5.90;;;;;;;27.96;10.77;100714.00;4233438;33;33465;-72
2022/03/23 10:42:37;;;;;;;13.30;6.53;;;;;;;27.42;10.99;100706.50;4232666;33;33902;-71
2022/03/23 10:45:13;;;;;;;9.63;6.62;;;;;;;26.98;11.33;100699.22;4243193;33;35125;-72
2022/03/23 10:47:41;;;;;;;10.70;6.80;;;;;;;27.19;10.96;100703.31;4242226;33;35199;-73
2022/03/23 10:50:20;;;;;;;14.73;6.50;;;;;;;26.76;11.39;100694.25;4232680;33;32943;-73
2022/03/23 10:53:06;;;;;;;13.15;6.60;;;;;;;26.94;11.24;100687.00;4232848;33;34673;-73
2022/03/23 10:55:39;;;;;;;10.30;6.12;;;;;;;26.48;13.12;100674.41;4232623;33;35385;-74
2022/03/23 10:58:23;;;;;;;9.93;6.00;;;;;;;27.37;12.14;100685.38;4242862;33;35395;-74
2022/03/23 11:00:56;;;;;;;9.73;6.07;;;;;;;27.21;11.58;100689.88;4243865;33;33507;-73
2022/03/23 11:03:42;;;;;;;9.52;5.68;;;;;;;26.28;12.97;100679.03;4243180;33;34812;-73
2022/03/23 11:06:16;;;;;;;14.65;6.62;;;;;;;28.15;9.96;100679.75;4231827;33;35048;-73
2022/03/23 11:08:45;;;;;;;12.70;6.03;;;;;;;28.62;9.53;100668.81;4232576;33;35077;-73
2022/03/23 11:16:51;;;;;;;8.93;4.97;;;;;;;28.11;9.06;100667.53;4241367;33;35049;-74
2022/03/23 11:19:23;;;;;;;8.35;5.35;;;;;;;28.82;9.17;100665.69;4232083;33;34427;-74
2022/03/23 11:22:16;;;;;;;9.70;6.10;;;;;;;29.06;9.56;100657.81;4243331;33;34167;-74
2022/03/23 11:24:46;;;;;;;14.87;6.25;;;;;;;29.04;9.65;100661.56;4230773;33;33496;-73
2022/03/23 11:27:18;;;;;;;17.60;8.65;;;;;;;27.24;11.44;100652.25;4243861;33;34218;-73
2022/03/23 11:29:48;;;;;;;20.98;6.95;;;;;;;28.64;11.01;100645.44;4230793;33;35506;-73
2022/03/23 11:32:20;;;;;;;11.02;6.28;;;;;;;28.66;11.35;100647.06;4232079;33;33565;-74
2022/03/23 11:34:49;;;;;;;11.52;6.70;;;;;;;27.96;11.89;100644.37;4242666;33;33949;-74
2022/03/23 11:37:20;;;;;;;9.02;6.25;;;;;;;27.98;11.00;100643.31;4232996;33;35855;-73
2022/03/23 11:39:50;;;;;;;10.20;5.72;;;;;;;28.48;11.70;100634.81;4231846;33;35273;-74
2022/03/23 11:42:20;;;;;;;10.68;5.65;;;;;;;28.48;10.03;100635.69;4241682;33;35335;-75
2022/03/23 11:44:54;;;;;;;9.88;5.18;;;;;;;28.42;9.67;100630.72;4241597;33;34837;-73
2022/03/23 11:47:45;;;;;;;6.93;4.25;;;;;;;29.85;9.63;100622.94;4232934;33;35186;-74
2022/03/23 11:50:30;;;;;;;7.90;5.40;;;;;;;29.46;8.46;100625.59;4217884;34;35253;-74